createdAt,value
2022-11-07T00:01:21.112Z,10.70
2022-11-07T00:03:48.701Z,10.63
2022-11-07T00:06:18.457Z,10.54
2022-11-07T00:08:45.902Z,10.47
2022-11-07T00:11:12.972Z,10.44
2022-11-07T00:13:40.017Z,10.42
2022-11-07T00:16:09.904Z,10.41
2022-11-07T00:18:37.395Z,10.40
2022-11-07T00:21:06.288Z,10.53
2022-11-07T00:23:33.439Z,10.55
2022-11-07T00:26:05.144Z,10.53
2022-11-07T00:28:42.720Z,10.47
2022-11-07T00:31:11.670Z,10.44
2022-11-07T00:33:38.793Z,10.46
2022-11-07T00:36:06.348Z,10.51
2022-11-07T00:38:33.359Z,10.54
2022-11-07T00:41:02.555Z,10.55
2022-11-07T00:43:30.497Z,10.59
2022-11-07T00:45:58.172Z,10.62
2022-11-07T00:48:25.235Z,10.62
2022-11-07T00:50:52.244Z,10.66
2022-11-07T00:53:19.293Z,10.67
2022-11-07T00:55:46.649Z,10.62
2022-11-07T00:58:14.598Z,10.54
2022-11-07T01:00:42.394Z,10.44
2022-11-07T01:03:27.924Z,10.39
2022-11-07T01:06:03.149Z,10.34
2022-11-07T01:08:30.781Z,10.31
2022-11-07T01:10:59.049Z,10.32
2022-11-07T01:13:26.872Z,10.33
2022-11-07T01:15:54.172Z,10.35
2022-11-07T01:18:21.248Z,10.35
2022-11-07T01:20:49.907Z,10.39
2022-11-07T01:23:18.287Z,10.39
2022-11-07T01:25:45.922Z,10.34
2022-11-07T01:28:12.922Z,10.33
2022-11-07T01:30:44.557Z,10.38
2022-11-07T01:33:12.737Z,10.43
2022-11-07T01:35:40.849Z,10.43
2022-11-07T01:38:08.605Z,10.43
2022-11-07T01:41:01.580Z,10.50
2022-11-07T01:43:46.722Z,10.41
2022-11-07T01:46:14.465Z,10.35
2022-11-07T01:48:44.971Z,10.33
2022-11-07T01:51:13.247Z,10.34
2022-11-07T01:53:41.649Z,10.32
2022-11-07T01:56:14.523Z,10.32
2022-11-07T01:58:43.369Z,10.30
2022-11-07T02:01:10.966Z,10.29
2022-11-07T02:03:38.746Z,10.32
2022-11-07T02:06:11.029Z,10.29
2022-11-07T02:08:40.255Z,10.24
2022-11-07T02:11:07.645Z,10.25
2022-11-07T02:13:34.669Z,10.22
2022-11-07T02:16:05.681Z,10.26
2022-11-07T02:18:36.429Z,10.29
2022-11-07T02:21:18.734Z,10.23
2022-11-07T02:24:01.515Z,10.15
2022-11-07T02:26:29.320Z,10.01
2022-11-07T02:28:57.604Z,9.91
2022-11-07T02:31:24.896Z,9.88
2022-11-07T02:33:52.089Z,9.82
2022-11-07T02:36:23.622Z,9.82
2022-11-07T02:38:57.664Z,9.84
2022-11-07T02:41:33.607Z,9.89
2022-11-07T02:44:09.057Z,9.96
2022-11-07T02:46:36.878Z,10.04
2022-11-07T02:49:04.166Z,10.13
2022-11-07T02:51:31.209Z,10.22
2022-11-07T02:53:58.576Z,10.33
2022-11-07T02:56:25.903Z,10.39
2022-11-07T02:58:52.986Z,10.44
2022-11-07T03:01:20.536Z,10.50
2022-11-07T03:03:49.502Z,10.57
2022-11-07T03:06:19.987Z,10.63
2022-11-07T03:08:47.317Z,10.66
2022-11-07T03:11:14.699Z,10.66
2022-11-07T03:13:41.668Z,10.69
2022-11-07T03:16:11.258Z,10.84
2022-11-07T03:18:38.538Z,10.91
2022-11-07T03:21:06.333Z,10.92
2022-11-07T03:23:34.997Z,10.87
2022-11-07T03:26:02.586Z,10.88
2022-11-07T03:28:29.675Z,10.86
2022-11-07T03:31:00.975Z,10.93
2022-11-07T03:33:28.651Z,10.88
2022-11-07T03:35:55.650Z,10.82
2022-11-07T03:38:22.758Z,10.78
2022-11-07T03:40:49.926Z,10.76
2022-11-07T03:43:17.289Z,10.77
2022-11-07T03:45:44.567Z,10.79
2022-11-07T03:48:11.638Z,10.78
2022-11-07T03:50:38.771Z,10.78
2022-11-07T03:53:05.804Z,10.74
2022-11-07T03:55:32.849Z,10.74
2022-11-07T03:57:59.847Z,10.78
2022-11-07T04:00:26.868Z,10.79
2022-11-07T04:02:54.057Z,10.78
2022-11-07T04:05:21.140Z,10.76
2022-11-07T04:07:48.214Z,10.75
2022-11-07T04:10:15.393Z,10.70
2022-11-07T04:13:00.766Z,10.67
2022-11-07T04:15:46.179Z,10.57
2022-11-07T04:18:13.640Z,10.54
2022-11-07T04:20:40.620Z,10.52
2022-11-07T04:23:07.495Z,10.52
2022-11-07T04:25:52.831Z,10.52
2022-11-07T04:28:20.012Z,10.47
2022-11-07T04:30:47.044Z,10.44
2022-11-07T04:33:14.456Z,10.38
2022-11-07T04:35:41.659Z,10.30
2022-11-07T04:38:08.695Z,10.26
2022-11-07T04:40:36.045Z,10.26
2022-11-07T04:43:09.268Z,10.25
2022-11-07T04:45:37.919Z,10.25
2022-11-07T04:48:05.842Z,10.25
2022-11-07T04:50:32.947Z,10.21
2022-11-07T04:53:00.108Z,10.20
2022-11-07T04:55:30.753Z,10.23
2022-11-07T04:57:58.176Z,10.25
2022-11-07T05:00:25.689Z,10.28
2022-11-07T05:02:53.033Z,10.31
2022-11-07T05:05:20.452Z,10.27
2022-11-07T05:07:47.869Z,10.27
2022-11-07T05:10:19.401Z,10.31
2022-11-07T05:12:46.486Z,10.35
2022-11-07T05:15:13.692Z,10.41
2022-11-07T05:17:42.232Z,10.39
2022-11-07T05:20:25.852Z,10.38
2022-11-07T05:23:11.518Z,10.40
2022-11-07T05:25:49.995Z,10.46
2022-11-07T05:28:25.688Z,10.48
2022-11-07T05:31:01.872Z,10.51
2022-11-07T05:33:29.295Z,10.55
2022-11-07T05:35:56.262Z,10.60
2022-11-07T05:38:23.327Z,10.63
2022-11-07T05:40:50.307Z,10.70
2022-11-07T05:43:17.878Z,10.77
2022-11-07T05:45:45.310Z,10.84
2022-11-07T05:48:13.770Z,10.90
2022-11-07T05:50:41.325Z,10.99
2022-11-07T05:53:08.558Z,11.08
2022-11-07T05:55:35.567Z,11.17
2022-11-07T05:58:08.792Z,11.27
2022-11-07T06:00:35.769Z,11.32
2022-11-07T06:03:05.897Z,11.41
2022-11-07T06:05:33.097Z,11.44
2022-11-07T06:08:00.196Z,11.48
2022-11-07T06:10:27.314Z,11.51
2022-11-07T06:13:02.780Z,11.56
2022-11-07T06:15:33.623Z,11.62
2022-11-07T06:18:02.103Z,11.68
2022-11-07T06:20:30.120Z,11.80
2022-11-07T06:23:04.494Z,11.95
2022-11-07T06:25:32.496Z,12.08
2022-11-07T06:28:07.850Z,12.14
2022-11-07T06:30:36.357Z,12.19
2022-11-07T06:33:05.673Z,12.31
2022-11-07T06:35:33.178Z,12.42
2022-11-07T06:38:05.238Z,12.60
2022-11-07T06:40:33.308Z,12.78
2022-11-07T06:43:12.729Z,12.92
2022-11-07T06:45:40.820Z,13.05
2022-11-07T06:48:08.935Z,13.14
2022-11-07T06:50:36.145Z,13.20
2022-11-07T06:53:05.062Z,13.26
2022-11-07T06:55:35.035Z,13.31
2022-11-07T06:58:02.905Z,13.42
2022-11-07T07:00:35.390Z,13.55
2022-11-07T07:03:02.950Z,13.57
2022-11-07T07:05:30.054Z,13.59
2022-11-07T07:07:57.413Z,13.64
2022-11-07T07:10:25.597Z,13.70
2022-11-07T07:12:54.164Z,13.80
2022-11-07T07:15:21.481Z,13.83
2022-11-07T07:17:49.376Z,13.88
2022-11-07T07:20:16.709Z,13.92
2022-11-07T07:22:50.410Z,13.95
2022-11-07T07:25:29.324Z,14.00
2022-11-07T07:27:56.781Z,14.06
2022-11-07T07:30:24.164Z,14.12
2022-11-07T07:32:51.232Z,14.18
2022-11-07T07:35:18.575Z,14.23
2022-11-07T07:37:50.202Z,14.29
2022-11-07T07:40:17.898Z,14.37
2022-11-07T07:42:45.439Z,14.37
2022-11-07T07:45:14.295Z,14.38
2022-11-07T07:47:42.167Z,14.38
2022-11-07T07:50:11.668Z,14.40
2022-11-07T07:52:39.170Z,14.45
2022-11-07T07:55:09.351Z,14.56
2022-11-07T07:57:42.473Z,14.64
2022-11-07T08:00:12.023Z,14.74
2022-11-07T08:02:40.090Z,14.79
2022-11-07T08:05:07.703Z,14.85
2022-11-07T08:07:35.082Z,14.91
2022-11-07T08:10:14.617Z,14.91
2022-11-07T08:12:49.521Z,14.95
2022-11-07T08:15:18.698Z,15.00
2022-11-07T08:17:46.711Z,15.09
2022-11-07T08:20:16.405Z,15.14
2022-11-07T08:22:43.464Z,15.25
2022-11-07T08:25:12.194Z,15.33
2022-11-07T08:27:39.467Z,15.42
2022-11-07T08:30:12.626Z,15.56
2022-11-07T08:32:42.979Z,15.62
2022-11-07T08:35:11.502Z,15.67
2022-11-07T08:37:39.065Z,15.73
2022-11-07T08:40:08.844Z,15.82
2022-11-07T08:42:36.273Z,15.91
2022-11-07T08:45:03.755Z,15.86
2022-11-07T08:47:30.962Z,15.91
2022-11-07T08:49:59.185Z,16.04
2022-11-07T08:52:28.258Z,16.23
2022-11-07T08:54:55.638Z,16.28
2022-11-07T08:57:22.845Z,16.39
2022-11-07T08:59:49.844Z,16.43
2022-11-07T09:05:05.121Z,16.55
2022-11-07T09:07:32.280Z,16.73
2022-11-07T09:09:59.267Z,16.83
2022-11-07T09:12:26.533Z,16.85
2022-11-07T09:14:53.583Z,16.95
2022-11-07T09:17:20.635Z,17.01
2022-11-07T09:19:47.588Z,17.02
2022-11-07T09:22:15.417Z,16.98
2022-11-07T09:24:42.626Z,16.94
2022-11-07T09:27:09.630Z,16.92
2022-11-07T09:29:36.774Z,17.00
2022-11-07T09:32:23.413Z,17.01
2022-11-07T09:34:58.212Z,16.94
2022-11-07T09:37:26.594Z,16.84
2022-11-07T09:39:53.789Z,16.82
2022-11-07T09:43:01.994Z,16.79
2022-11-07T09:45:32.203Z,16.82
2022-11-07T09:48:07.009Z,16.96
2022-11-07T09:50:43.410Z,16.94
2022-11-07T09:53:25.476Z,17.03
2022-11-07T09:56:07.052Z,17.18
2022-11-07T09:58:38.281Z,17.28
2022-11-07T10:01:26.747Z,17.35
2022-11-07T10:04:23.129Z,17.48
2022-11-07T10:07:06.139Z,17.51
2022-11-07T10:10:17.825Z,17.60
2022-11-07T10:13:04.368Z,17.60
2022-11-07T10:15:54.438Z,17.62
2022-11-07T10:18:38.986Z,17.68
2022-11-07T10:21:44.862Z,17.64
2022-11-07T10:25:00.022Z,17.67
2022-11-07T10:27:27.221Z,17.78
2022-11-07T10:29:56.576Z,17.90
2022-11-07T10:33:13.078Z,18.01
2022-11-07T10:35:48.229Z,17.99
2022-11-07T10:38:19.951Z,18.05
2022-11-07T10:40:47.994Z,17.98
2022-11-07T10:43:30.130Z,18.16
2022-11-07T10:45:58.351Z,18.26
2022-11-07T10:48:26.012Z,18.41
2022-11-07T10:50:54.917Z,18.61
2022-11-07T10:53:23.734Z,18.79
2022-11-07T10:55:52.264Z,19.01
2022-11-07T10:58:27.359Z,19.09
2022-11-07T11:01:09.842Z,19.19
2022-11-07T11:03:50.827Z,19.43
2022-11-07T11:06:24.022Z,19.73
2022-11-07T11:08:53.215Z,19.90
2022-11-07T11:11:32.514Z,20.00
2022-11-07T11:14:16.991Z,19.89
2022-11-07T11:16:44.347Z,20.04
2022-11-07T11:19:24.885Z,20.09
2022-11-07T11:21:58.839Z,20.23
2022-11-07T11:24:36.916Z,20.45
2022-11-07T11:27:15.661Z,20.65
2022-11-07T11:30:02.262Z,20.82
2022-11-07T11:32:38.249Z,20.97
2022-11-07T11:35:29.190Z,21.12
2022-11-07T11:37:59.136Z,21.27
2022-11-07T11:40:29.050Z,21.40
2022-11-07T11:43:08.106Z,21.51
2022-11-07T11:46:11.819Z,21.51
2022-11-07T11:48:49.748Z,21.69
2022-11-07T11:51:29.054Z,21.83
2022-11-07T11:53:57.467Z,21.96
2022-11-07T11:56:34.389Z,21.85
2022-11-07T11:59:59.384Z,21.95
2022-11-07T12:03:20.272Z,21.98
2022-11-07T12:06:18.889Z,21.97
2022-11-07T12:09:28.394Z,22.10
2022-11-07T12:12:25.066Z,22.08
2022-11-07T12:15:31.912Z,22.12
2022-11-07T12:18:55.342Z,22.14
2022-11-07T12:21:50.672Z,22.05
2022-11-07T12:24:31.642Z,22.15
2022-11-07T12:30:34.169Z,22.53
2022-11-07T12:36:49.761Z,22.83
2022-11-07T12:39:27.792Z,22.69
2022-11-07T12:42:05.644Z,22.81
2022-11-07T12:48:16.152Z,23.05
2022-11-07T13:02:17.595Z,23.16
2022-11-07T13:04:59.887Z,23.09
2022-11-07T13:07:39.937Z,23.01
2022-11-07T13:10:18.842Z,22.99
2022-11-07T13:13:26.072Z,22.85
2022-11-07T13:16:14.500Z,22.92
2022-11-07T13:21:14.137Z,23.18
2022-11-07T13:23:41.936Z,23.26
2022-11-07T13:26:26.382Z,23.26
2022-11-07T13:29:00.687Z,23.05
2022-11-07T13:31:39.432Z,23.02
2022-11-07T13:34:11.699Z,23.22
2022-11-07T13:36:39.644Z,23.43
2022-11-07T13:39:07.903Z,23.61
2022-11-07T13:41:35.182Z,23.70
2022-11-07T13:44:07.441Z,23.74
2022-11-07T13:46:54.118Z,23.81
2022-11-07T13:49:46.853Z,23.89
2022-11-07T13:52:27.078Z,24.01
2022-11-07T13:55:03.953Z,24.18
2022-11-07T13:58:01.332Z,24.70
2022-11-07T14:00:30.566Z,25.01
2022-11-07T14:02:59.224Z,25.21
2022-11-07T14:05:29.827Z,25.41
2022-11-07T14:08:02.448Z,25.51
2022-11-07T14:10:50.757Z,25.55
2022-11-07T14:13:51.423Z,25.35
2022-11-07T14:16:26.698Z,25.23
2022-11-07T14:19:03.869Z,25.24
2022-11-07T14:21:35.908Z,24.99
2022-11-07T14:24:20.296Z,24.86
2022-11-07T14:27:01.331Z,24.65
2022-11-07T14:29:29.873Z,24.44
2022-11-07T14:32:06.997Z,24.22
2022-11-07T14:34:44.694Z,24.15
2022-11-07T14:37:15.226Z,24.05
2022-11-07T14:39:42.849Z,23.83
2022-11-07T14:42:25.983Z,23.79
2022-11-07T14:44:58.953Z,23.64
2022-11-07T14:47:30.865Z,23.47
2022-11-07T14:49:59.385Z,23.20
2022-11-07T14:52:42.177Z,22.80
2022-11-07T14:55:21.062Z,22.36
2022-11-07T14:57:48.497Z,21.94
2022-11-07T15:00:18.763Z,21.59
2022-11-07T15:02:49.423Z,21.26
2022-11-07T15:05:23.192Z,20.92
2022-11-07T15:07:50.493Z,20.64
2022-11-07T15:10:35.831Z,20.36
2022-11-07T15:13:22.985Z,20.05
2022-11-07T15:16:14.264Z,19.73
2022-11-07T15:18:44.839Z,19.52
2022-11-07T15:21:32.356Z,19.36
2022-11-07T15:24:02.114Z,19.19
2022-11-07T15:26:35.024Z,18.96
2022-11-07T15:29:22.285Z,18.66
2022-11-07T15:31:49.968Z,18.50
2022-11-07T15:34:33.787Z,18.31
2022-11-07T15:37:15.707Z,18.10
2022-11-07T15:39:42.709Z,17.93
2022-11-07T15:42:09.967Z,17.84
2022-11-07T15:44:37.223Z,17.76
2022-11-07T15:47:05.698Z,17.62
2022-11-07T15:49:34.328Z,17.53
2022-11-07T15:52:01.728Z,17.39
2022-11-07T15:54:28.917Z,17.29
2022-11-07T15:57:01.561Z,17.18
2022-11-07T15:59:32.910Z,16.98
2022-11-07T16:02:01.689Z,16.82
2022-11-07T16:04:29.692Z,16.72
2022-11-07T16:06:56.674Z,16.68
2022-11-07T16:09:26.921Z,16.59
2022-11-07T16:11:53.970Z,16.54
2022-11-07T16:14:42.930Z,16.41
2022-11-07T16:17:12.819Z,16.34
2022-11-07T16:19:40.357Z,16.26
2022-11-07T16:22:13.518Z,16.17
2022-11-07T16:24:40.609Z,16.07
2022-11-07T16:27:07.831Z,16.00
2022-11-07T16:29:35.089Z,15.96
2022-11-07T16:32:02.229Z,15.85
2022-11-07T16:34:29.276Z,15.71
2022-11-07T16:36:56.253Z,15.65
2022-11-07T16:39:23.501Z,15.56
2022-11-07T16:41:50.784Z,15.50
2022-11-07T16:44:25.624Z,15.44
2022-11-07T16:46:55.555Z,15.32
2022-11-07T16:49:31.647Z,15.21
2022-11-07T16:51:59.013Z,15.09
2022-11-07T16:54:26.219Z,15.02
2022-11-07T16:56:53.587Z,14.94
2022-11-07T16:59:22.698Z,14.83
2022-11-07T17:01:51.101Z,14.73
2022-11-07T17:04:18.332Z,14.68
2022-11-07T17:06:47.784Z,14.63
2022-11-07T17:09:17.038Z,14.58
2022-11-07T17:11:44.512Z,14.57
2022-11-07T17:14:11.675Z,14.52
2022-11-07T17:16:42.569Z,14.46
2022-11-07T17:19:12.176Z,14.38
2022-11-07T17:21:44.018Z,14.30
2022-11-07T17:24:10.983Z,14.21
2022-11-07T17:26:39.089Z,14.13
2022-11-07T17:29:08.825Z,14.05
2022-11-07T17:31:36.024Z,14.02
2022-11-07T17:34:03.012Z,14.00
2022-11-07T17:36:40.610Z,13.97
2022-11-07T17:39:11.977Z,13.92
2022-11-07T17:41:43.646Z,13.85
2022-11-07T17:44:11.494Z,13.83
2022-11-07T17:46:44.579Z,13.83
2022-11-07T17:49:14.667Z,13.80
2022-11-07T17:51:42.356Z,13.76
2022-11-07T17:54:14.411Z,13.71
2022-11-07T17:56:42.253Z,13.70
2022-11-07T17:59:14.267Z,13.70
2022-11-07T18:01:41.982Z,13.71
2022-11-07T18:04:11.035Z,13.71
2022-11-07T18:06:40.177Z,13.73
2022-11-07T18:09:09.326Z,13.71
2022-11-07T18:11:36.680Z,13.63
2022-11-07T18:14:03.773Z,13.55
2022-11-07T18:16:33.902Z,13.53
2022-11-07T18:19:02.538Z,13.53
2022-11-07T18:21:30.229Z,13.55
2022-11-07T18:23:57.871Z,13.57
2022-11-07T18:26:31.175Z,13.49
2022-11-07T18:29:02.421Z,13.37
2022-11-07T18:31:29.308Z,13.26
2022-11-07T18:33:58.156Z,13.22
2022-11-07T18:36:25.721Z,13.21
2022-11-07T18:38:52.763Z,13.17
2022-11-07T18:41:23.932Z,13.14
2022-11-07T18:43:50.984Z,13.09
2022-11-07T18:46:19.576Z,13.09
2022-11-07T18:48:46.787Z,13.09
2022-11-07T18:51:21.955Z,13.10
2022-11-07T18:53:52.748Z,13.11
2022-11-07T18:56:20.593Z,13.11
2022-11-07T18:58:47.768Z,13.10
2022-11-07T19:01:28.502Z,13.08
2022-11-07T19:03:57.179Z,13.06
2022-11-07T19:06:25.682Z,13.05
2022-11-07T19:08:53.425Z,13.06
2022-11-07T19:11:26.784Z,13.07
2022-11-07T19:13:53.900Z,13.09
2022-11-07T19:16:24.327Z,13.07
2022-11-07T19:18:51.821Z,13.02
2022-11-07T19:21:21.250Z,12.90
2022-11-07T19:23:54.637Z,12.90
2022-11-07T19:26:21.835Z,12.81
2022-11-07T19:28:49.075Z,12.78
2022-11-07T19:31:16.827Z,12.77
2022-11-07T19:33:44.423Z,12.77
2022-11-07T19:36:17.082Z,12.82
2022-11-07T19:38:45.117Z,12.81
2022-11-07T19:41:13.632Z,12.80
2022-11-07T19:43:42.716Z,12.80
2022-11-07T19:46:16.522Z,12.80
2022-11-07T19:48:44.288Z,12.77
2022-11-07T19:51:21.558Z,12.73
2022-11-07T19:53:56.848Z,12.72
2022-11-07T19:56:25.713Z,12.70
2022-11-07T19:58:52.767Z,12.69
2022-11-07T20:01:24.999Z,12.71
2022-11-07T20:03:53.375Z,12.71
2022-11-07T20:06:23.837Z,12.72
2022-11-07T20:08:51.355Z,12.73
2022-11-07T20:11:21.671Z,12.77
2022-11-07T20:13:48.839Z,12.80
2022-11-07T20:16:16.516Z,12.83
2022-11-07T20:18:44.043Z,12.84
2022-11-07T20:21:14.307Z,12.83
2022-11-07T20:23:42.552Z,12.92
2022-11-07T20:26:12.300Z,12.92
2022-11-07T20:28:39.921Z,12.87
2022-11-07T20:31:14.025Z,12.82
2022-11-07T20:33:41.424Z,12.74
2022-11-07T20:36:13.175Z,12.49
2022-11-07T20:38:41.151Z,12.37
2022-11-07T20:41:08.482Z,12.31
2022-11-07T20:43:35.757Z,12.31
2022-11-07T20:46:11.458Z,12.29
2022-11-07T20:48:39.237Z,12.27
2022-11-07T20:51:11.046Z,12.28
2022-11-07T20:53:39.411Z,12.26
2022-11-07T20:56:07.114Z,12.22
2022-11-07T20:58:36.965Z,12.24
2022-11-07T21:01:05.072Z,12.19
2022-11-07T21:03:33.666Z,12.17
2022-11-07T21:06:01.375Z,12.18
2022-11-07T21:08:30.775Z,12.25
2022-11-07T21:11:00.134Z,12.30
2022-11-07T21:13:27.231Z,12.33
2022-11-07T21:15:54.329Z,12.37
2022-11-07T21:18:21.623Z,12.38
2022-11-07T21:20:48.788Z,12.40
2022-11-07T21:23:16.835Z,12.44
2022-11-07T21:25:48.154Z,12.40
2022-11-07T21:28:18.163Z,12.36
2022-11-07T21:30:58.080Z,12.34
2022-11-07T21:33:25.267Z,12.36
2022-11-07T21:35:52.309Z,12.42
2022-11-07T21:38:19.369Z,12.46
2022-11-07T21:40:46.651Z,12.48
2022-11-07T21:43:13.900Z,12.48
2022-11-07T21:45:41.174Z,12.50
2022-11-07T21:48:08.555Z,12.51
2022-11-07T21:50:44.532Z,12.51
2022-11-07T21:53:12.296Z,12.48
2022-11-07T21:55:39.524Z,12.47
2022-11-07T21:58:06.620Z,12.60
2022-11-07T22:00:36.764Z,12.70
2022-11-07T22:03:04.693Z,12.51
2022-11-07T22:05:31.794Z,12.32
2022-11-07T22:07:58.871Z,12.21
2022-11-07T22:10:25.982Z,12.15
2022-11-07T22:12:53.125Z,12.14
2022-11-07T22:15:20.312Z,12.21
2022-11-07T22:17:47.387Z,12.24
2022-11-07T22:20:14.554Z,12.25
2022-11-07T22:22:41.572Z,12.26
2022-11-07T22:25:08.772Z,12.27
2022-11-07T22:27:37.438Z,12.27
2022-11-07T22:30:05.505Z,12.28
2022-11-07T22:32:32.610Z,12.29
2022-11-07T22:35:00.919Z,12.31
2022-11-07T22:37:30.894Z,12.35
2022-11-07T22:39:57.882Z,12.32
2022-11-07T22:42:25.004Z,12.32
2022-11-07T22:44:52.054Z,12.29
2022-11-07T22:47:19.085Z,12.26
2022-11-07T22:49:46.162Z,12.22
2022-11-07T22:52:13.175Z,12.22
2022-11-07T22:54:40.806Z,12.23
2022-11-07T22:57:07.726Z,12.18
2022-11-07T22:59:34.732Z,12.16
2022-11-07T23:02:02.036Z,12.13
2022-11-07T23:04:32.867Z,12.11
2022-11-07T23:07:00.108Z,12.07
2022-11-07T23:09:27.270Z,12.06
2022-11-07T23:11:54.819Z,12.05
2022-11-07T23:14:25.828Z,12.10
2022-11-07T23:16:55.457Z,12.16
2022-11-07T23:19:24.730Z,12.23
2022-11-07T23:21:56.644Z,12.23
2022-11-07T23:24:24.047Z,12.22
2022-11-07T23:26:52.347Z,12.22
2022-11-07T23:29:21.539Z,12.22
2022-11-07T23:31:50.033Z,12.21
2022-11-07T23:34:18.436Z,12.16
2022-11-07T23:36:45.673Z,12.22
2022-11-07T23:39:18.733Z,12.22
2022-11-07T23:41:46.438Z,12.21
2022-11-07T23:44:14.182Z,12.21
2022-11-07T23:47:00.323Z,12.23
2022-11-07T23:49:45.743Z,12.25
2022-11-07T23:52:12.904Z,12.28
2022-11-07T23:54:58.571Z,12.27
2022-11-07T23:57:25.575Z,12.25
